createdAt,value
2022-07-27T00:01:18.790Z,100.00
2022-07-27T00:03:47.377Z,100.00
2022-07-27T00:06:17.484Z,100.00
2022-07-27T00:08:45.658Z,100.00
2022-07-27T00:11:13.944Z,100.00
2022-07-27T00:13:45.256Z,100.00
2022-07-27T00:16:13.664Z,100.00
2022-07-27T00:18:42.066Z,100.00
2022-07-27T00:21:10.566Z,100.00
2022-07-27T00:23:38.959Z,100.00
2022-07-27T00:26:07.173Z,100.00
2022-07-27T00:28:35.491Z,100.00
2022-07-27T00:31:05.429Z,100.00
2022-07-27T00:33:33.972Z,100.00
2022-07-27T00:36:03.042Z,100.00
2022-07-27T00:38:32.369Z,100.00
2022-07-27T00:41:00.829Z,100.00
2022-07-27T00:43:30.620Z,100.00
2022-07-27T00:45:58.945Z,100.00
2022-07-27T00:48:29.383Z,100.00
2022-07-27T00:51:00.441Z,100.00
2022-07-27T00:53:28.903Z,100.00
2022-07-27T00:55:57.467Z,100.00
2022-07-27T00:58:26.770Z,100.00
2022-07-27T01:00:55.167Z,100.00
2022-07-27T01:03:29.514Z,100.00
2022-07-27T01:06:01.100Z,100.00
2022-07-27T01:08:30.510Z,100.00
2022-07-27T01:11:00.449Z,100.00
2022-07-27T01:13:29.196Z,100.00
2022-07-27T01:15:58.280Z,100.00
2022-07-27T01:18:32.074Z,100.00
2022-07-27T01:21:04.891Z,100.00
2022-07-27T01:23:35.175Z,100.00
2022-07-27T01:26:04.804Z,100.00
2022-07-27T01:28:33.151Z,100.00
2022-07-27T01:31:01.306Z,100.00
2022-07-27T01:33:29.750Z,100.00
2022-07-27T01:35:59.032Z,100.00
2022-07-27T01:38:27.573Z,100.00
2022-07-27T01:40:57.431Z,100.00
2022-07-27T01:43:25.557Z,100.00
2022-07-27T01:45:53.707Z,100.00
2022-07-27T01:48:22.225Z,100.00
2022-07-27T01:50:51.251Z,100.00
2022-07-27T01:53:19.683Z,100.00
2022-07-27T01:55:48.425Z,100.00
2022-07-27T01:58:18.427Z,100.00
2022-07-27T02:00:47.014Z,100.00
2022-07-27T02:03:15.454Z,100.00
2022-07-27T02:05:43.700Z,100.00
2022-07-27T02:08:13.593Z,100.00
2022-07-27T02:11:02.394Z,100.00
2022-07-27T02:13:30.806Z,100.00
2022-07-27T02:15:59.138Z,100.00
2022-07-27T02:18:33.041Z,100.00
2022-07-27T02:21:04.842Z,100.00
2022-07-27T02:23:33.483Z,100.00
2022-07-27T02:26:02.574Z,100.00
2022-07-27T02:28:32.073Z,100.00
2022-07-27T02:31:00.462Z,100.00
2022-07-27T02:33:30.099Z,100.00
2022-07-27T02:35:58.490Z,100.00
2022-07-27T02:38:27.192Z,100.00
2022-07-27T02:40:55.257Z,100.00
2022-07-27T02:43:23.284Z,100.00
2022-07-27T02:45:53.309Z,100.00
2022-07-27T02:48:21.816Z,100.00
2022-07-27T02:50:50.054Z,100.00
2022-07-27T02:53:18.607Z,100.00
2022-07-27T02:55:47.079Z,100.00
2022-07-27T02:58:15.260Z,100.00
2022-07-27T03:00:45.230Z,100.00
2022-07-27T03:03:15.183Z,100.00
2022-07-27T03:05:43.484Z,100.00
2022-07-27T03:08:11.979Z,100.00
2022-07-27T03:10:40.042Z,100.00
2022-07-27T03:13:08.102Z,100.00
2022-07-27T03:15:37.238Z,100.00
2022-07-27T03:18:05.640Z,100.00
2022-07-27T03:20:35.515Z,100.00
2022-07-27T03:23:04.092Z,100.00
2022-07-27T03:25:32.773Z,100.00
2022-07-27T03:28:04.222Z,100.00
2022-07-27T03:30:33.102Z,100.00
2022-07-27T03:33:01.338Z,100.00
2022-07-27T03:35:29.504Z,100.00
2022-07-27T03:37:59.233Z,100.00
2022-07-27T03:40:29.674Z,100.00
2022-07-27T03:42:57.930Z,100.00
2022-07-27T03:45:26.413Z,100.00
2022-07-27T03:47:54.560Z,100.00
2022-07-27T03:50:24.058Z,100.00
2022-07-27T03:52:53.137Z,100.00
2022-07-27T03:55:23.211Z,100.00
2022-07-27T03:57:52.629Z,100.00
2022-07-27T04:00:21.099Z,100.00
2022-07-27T04:02:49.831Z,100.00
2022-07-27T04:05:18.080Z,100.00
2022-07-27T04:07:46.241Z,100.00
2022-07-27T04:10:14.388Z,100.00
2022-07-27T04:12:44.213Z,100.00
2022-07-27T04:15:14.977Z,100.00
2022-07-27T04:17:54.611Z,100.00
2022-07-27T04:20:24.966Z,100.00
2022-07-27T04:22:53.214Z,100.00
2022-07-27T04:25:21.598Z,100.00
2022-07-27T04:27:54.723Z,100.00
2022-07-27T04:30:23.970Z,100.00
2022-07-27T04:32:52.382Z,100.00
2022-07-27T04:35:26.085Z,100.00
2022-07-27T04:37:58.506Z,100.00
2022-07-27T04:40:31.313Z,100.00
2022-07-27T04:43:02.134Z,100.00
2022-07-27T04:45:30.703Z,100.00
2022-07-27T04:47:59.605Z,100.00
2022-07-27T04:50:28.140Z,100.00
2022-07-27T04:52:56.512Z,100.00
2022-07-27T04:55:24.794Z,100.00
2022-07-27T04:57:53.208Z,100.00
2022-07-27T05:00:23.829Z,100.00
2022-07-27T05:02:51.915Z,100.00
2022-07-27T05:05:20.379Z,100.00
2022-07-27T05:07:48.509Z,100.00
2022-07-27T05:10:20.333Z,100.00
2022-07-27T05:12:49.625Z,100.00
2022-07-27T05:15:18.116Z,100.00
2022-07-27T05:17:47.947Z,100.00
2022-07-27T05:20:16.834Z,100.00
2022-07-27T05:22:45.496Z,100.00
2022-07-27T05:25:13.954Z,100.00
2022-07-27T05:27:54.829Z,100.00
2022-07-27T05:30:25.655Z,100.00
2022-07-27T05:32:55.775Z,100.00
2022-07-27T05:35:24.564Z,100.00
2022-07-27T05:37:52.779Z,100.00
2022-07-27T05:40:21.129Z,100.00
2022-07-27T05:42:50.860Z,100.00
2022-07-27T05:45:19.580Z,100.00
2022-07-27T05:47:47.837Z,100.00
2022-07-27T05:50:18.282Z,100.00
2022-07-27T05:52:46.807Z,100.00
2022-07-27T05:55:15.242Z,100.00
2022-07-27T05:57:43.784Z,100.00
2022-07-27T06:00:13.466Z,100.00
2022-07-27T06:02:42.539Z,100.00
2022-07-27T06:05:15.614Z,100.00
2022-07-27T06:08:03.715Z,100.00
2022-07-27T06:10:34.895Z,100.00
2022-07-27T06:13:05.649Z,100.00
2022-07-27T06:15:34.649Z,100.00
2022-07-27T06:18:04.047Z,100.00
2022-07-27T06:20:33.101Z,100.00
2022-07-27T06:23:07.596Z,100.00
2022-07-27T06:25:38.167Z,100.00
2022-07-27T06:28:07.513Z,100.00
2022-07-27T06:30:35.807Z,100.00
2022-07-27T06:33:06.040Z,100.00
2022-07-27T06:35:34.540Z,100.00
2022-07-27T06:38:07.467Z,100.00
2022-07-27T06:40:35.987Z,100.00
2022-07-27T06:43:04.559Z,100.00
2022-07-27T06:45:32.780Z,100.00
2022-07-27T06:48:00.933Z,100.00
2022-07-27T06:50:29.432Z,100.00
2022-07-27T06:52:57.724Z,100.00
2022-07-27T06:55:27.384Z,100.00
2022-07-27T06:57:55.648Z,100.00
2022-07-27T07:00:24.343Z,100.00
2022-07-27T07:02:54.701Z,100.00
2022-07-27T07:05:23.299Z,100.00
2022-07-27T07:07:51.812Z,100.00
2022-07-27T07:10:21.008Z,100.00
2022-07-27T07:12:56.207Z,100.00
2022-07-27T07:15:26.722Z,100.00
2022-07-27T07:17:56.189Z,100.00
2022-07-27T07:20:24.875Z,100.00
2022-07-27T07:22:53.935Z,100.00
2022-07-27T07:25:22.354Z,100.00
2022-07-27T07:27:50.804Z,100.00
2022-07-27T07:30:21.402Z,100.00
2022-07-27T07:32:49.882Z,100.00
2022-07-27T07:35:18.878Z,100.00
2022-07-27T07:37:49.764Z,100.00
2022-07-27T07:43:08.634Z,100.00
2022-07-27T07:45:50.280Z,100.00
2022-07-27T07:48:19.554Z,100.00
2022-07-27T07:50:52.094Z,100.00
2022-07-27T07:53:21.878Z,100.00
2022-07-27T07:55:51.415Z,100.00
2022-07-27T07:58:19.702Z,100.00
2022-07-27T08:00:50.971Z,100.00
2022-07-27T08:03:20.632Z,100.00
2022-07-27T08:05:49.278Z,100.00
2022-07-27T08:08:18.388Z,100.00
2022-07-27T08:10:47.945Z,100.00
2022-07-27T08:13:21.512Z,99.36
2022-07-27T08:15:53.153Z,99.38
2022-07-27T08:18:21.962Z,96.50
2022-07-27T08:20:50.712Z,96.68
2022-07-27T08:23:18.895Z,95.07
2022-07-27T08:25:47.054Z,94.73
2022-07-27T08:28:15.257Z,94.18
2022-07-27T08:30:44.425Z,93.56
2022-07-27T08:33:14.578Z,93.35
2022-07-27T08:35:42.953Z,93.06
2022-07-27T08:38:11.191Z,95.67
2022-07-27T08:40:43.497Z,96.79
2022-07-27T08:43:20.194Z,98.80
2022-07-27T08:45:55.387Z,99.26
2022-07-27T08:48:25.805Z,98.98
2022-07-27T08:50:54.774Z,96.92
2022-07-27T08:53:23.778Z,96.25
2022-07-27T08:55:52.196Z,95.57
2022-07-27T08:58:20.545Z,93.89
2022-07-27T09:00:51.613Z,90.60
2022-07-27T09:03:21.954Z,88.45
2022-07-27T09:05:54.112Z,83.48
2022-07-27T09:08:24.698Z,80.89
2022-07-27T09:10:55.934Z,81.42
2022-07-27T09:13:27.773Z,76.78
2022-07-27T09:18:47.553Z,73.90
2022-07-27T09:21:20.335Z,75.01
2022-07-27T09:23:50.826Z,77.82
2022-07-27T09:26:36.256Z,79.80
2022-07-27T09:29:07.751Z,82.02
2022-07-27T09:31:43.174Z,81.90
2022-07-27T09:34:11.953Z,85.18
2022-07-27T09:36:54.169Z,81.75
2022-07-27T09:39:24.036Z,78.65
2022-07-27T09:41:55.648Z,77.33
2022-07-27T09:44:42.556Z,73.27
2022-07-27T09:47:22.850Z,69.82
2022-07-27T09:49:51.456Z,67.70
2022-07-27T09:52:26.599Z,65.60
2022-07-27T09:54:55.298Z,66.85
2022-07-27T09:57:23.556Z,70.82
2022-07-27T10:00:10.235Z,69.50
2022-07-27T10:02:39.048Z,68.33
2022-07-27T10:05:08.270Z,68.24
2022-07-27T10:07:39.659Z,71.07
2022-07-27T10:12:36.948Z,65.52
2022-07-27T10:15:05.668Z,63.63
2022-07-27T10:17:35.012Z,61.78
2022-07-27T10:20:08.940Z,57.66
2022-07-27T10:23:07.739Z,56.98
2022-07-27T10:25:38.115Z,56.76
2022-07-27T10:28:12.942Z,55.83
2022-07-27T10:30:41.743Z,57.86
2022-07-27T10:33:46.428Z,56.90
2022-07-27T10:36:18.048Z,56.43
2022-07-27T10:38:49.631Z,56.85
2022-07-27T10:41:25.609Z,55.73
2022-07-27T10:44:26.773Z,56.75
2022-07-27T10:46:56.719Z,52.67
2022-07-27T10:49:27.760Z,54.67
2022-07-27T10:51:58.253Z,54.45
2022-07-27T10:54:32.664Z,57.24
2022-07-27T10:57:04.104Z,56.51
2022-07-27T11:00:08.539Z,56.80
2022-07-27T11:02:41.509Z,57.04
2022-07-27T11:05:57.926Z,53.29
2022-07-27T11:10:50.261Z,49.71
2022-07-27T11:13:19.919Z,53.71
2022-07-27T11:15:59.702Z,56.06
2022-07-27T11:18:39.162Z,54.68
2022-07-27T11:21:25.512Z,54.88
2022-07-27T11:23:56.510Z,54.06
2022-07-27T11:26:28.649Z,54.35
2022-07-27T11:28:57.796Z,51.53
2022-07-27T11:31:52.729Z,49.35
2022-07-27T11:34:17.487Z,48.01
2022-07-27T11:36:49.231Z,49.73
2022-07-27T11:42:21.041Z,52.67
2022-07-27T11:44:51.057Z,52.82
2022-07-27T11:47:20.351Z,53.25
2022-07-27T11:49:49.501Z,52.27
2022-07-27T11:52:19.349Z,52.10
2022-07-27T11:54:53.172Z,51.66
2022-07-27T11:57:32.462Z,51.14
2022-07-27T12:00:00.627Z,49.43
2022-07-27T12:02:30.371Z,48.54
2022-07-27T12:05:02.806Z,48.47
2022-07-27T12:07:33.839Z,47.32
2022-07-27T12:10:05.029Z,47.08
2022-07-27T12:12:36.153Z,48.94
2022-07-27T12:15:42.833Z,47.19
2022-07-27T12:18:03.120Z,46.21
2022-07-27T12:20:34.677Z,49.18
2022-07-27T12:23:06.731Z,50.44
2022-07-27T12:25:35.675Z,50.82
2022-07-27T12:28:07.356Z,51.03
2022-07-27T12:30:37.118Z,48.09
2022-07-27T12:33:09.562Z,46.66
2022-07-27T12:35:46.699Z,46.19
2022-07-27T12:38:15.628Z,48.86
2022-07-27T12:40:49.804Z,48.45
2022-07-27T12:43:25.781Z,48.93
2022-07-27T12:45:55.998Z,48.04
2022-07-27T12:48:26.235Z,48.98
2022-07-27T12:51:01.104Z,49.84
2022-07-27T12:53:30.895Z,51.08
2022-07-27T12:56:02.005Z,50.06
2022-07-27T12:58:31.617Z,52.35
2022-07-27T13:01:00.116Z,50.96
2022-07-27T13:03:28.449Z,48.86
2022-07-27T13:05:56.840Z,49.78
2022-07-27T13:08:25.461Z,49.10
2022-07-27T13:10:53.792Z,49.32
2022-07-27T13:13:25.043Z,48.65
2022-07-27T13:15:56.582Z,47.77
2022-07-27T13:18:24.735Z,47.09
2022-07-27T13:20:53.342Z,48.24
2022-07-27T13:23:22.872Z,45.02
2022-07-27T13:25:51.292Z,45.37
2022-07-27T13:28:19.485Z,44.52
2022-07-27T13:30:47.491Z,45.05
2022-07-27T13:33:18.246Z,44.65
2022-07-27T13:35:47.623Z,44.55
2022-07-27T13:38:28.814Z,41.83
2022-07-27T13:40:57.708Z,41.87
2022-07-27T13:43:26.046Z,42.07
2022-07-27T13:45:54.442Z,40.59
2022-07-27T13:48:24.347Z,38.82
2022-07-27T13:50:52.798Z,38.48
2022-07-27T13:53:20.959Z,39.18
2022-07-27T13:55:49.137Z,39.63
2022-07-27T13:58:17.499Z,40.28
2022-07-27T14:00:45.788Z,40.48
2022-07-27T14:03:13.962Z,39.08
2022-07-27T14:05:49.490Z,39.17
2022-07-27T14:08:19.092Z,39.83
2022-07-27T14:10:47.659Z,39.85
2022-07-27T14:13:17.194Z,41.15
2022-07-27T14:15:54.569Z,41.20
2022-07-27T14:18:28.437Z,40.54
2022-07-27T14:20:59.476Z,41.18
2022-07-27T14:23:28.895Z,40.25
2022-07-27T14:25:58.497Z,40.46
2022-07-27T14:28:27.857Z,42.38
2022-07-27T14:30:57.080Z,43.55
2022-07-27T14:33:26.129Z,43.85
2022-07-27T14:36:07.599Z,43.87
2022-07-27T14:38:37.042Z,43.11
2022-07-27T14:41:08.571Z,43.05
2022-07-27T14:43:37.305Z,40.90
2022-07-27T14:46:05.582Z,42.04
2022-07-27T14:49:05.137Z,41.04
2022-07-27T14:51:25.731Z,39.13
2022-07-27T14:53:53.830Z,38.99
2022-07-27T14:56:22.774Z,40.07
2022-07-27T14:58:50.963Z,39.92
2022-07-27T15:01:19.112Z,39.72
2022-07-27T15:03:47.542Z,39.55
2022-07-27T15:06:16.183Z,39.68
2022-07-27T15:08:45.760Z,40.80
2022-07-27T15:11:13.892Z,40.26
2022-07-27T15:13:42.317Z,39.83
2022-07-27T15:16:11.466Z,39.66
2022-07-27T15:18:40.269Z,39.13
2022-07-27T15:21:13.598Z,37.99
2022-07-27T15:23:43.256Z,38.21
2022-07-27T15:26:14.417Z,37.57
2022-07-27T15:28:43.856Z,36.91
2022-07-27T15:31:13.336Z,38.45
2022-07-27T15:33:41.748Z,37.47
2022-07-27T15:36:10.615Z,37.07
2022-07-27T15:38:58.787Z,36.02
2022-07-27T15:41:28.787Z,36.70
2022-07-27T15:44:01.338Z,35.68
2022-07-27T15:46:29.819Z,35.97
2022-07-27T15:48:57.972Z,35.23
2022-07-27T15:51:26.417Z,34.41
2022-07-27T15:53:56.264Z,36.21
2022-07-27T15:56:24.795Z,35.64
2022-07-27T15:58:54.409Z,34.73
2022-07-27T16:01:22.762Z,34.89
2022-07-27T16:04:05.306Z,35.04
2022-07-27T16:06:38.793Z,35.40
2022-07-27T16:09:09.653Z,33.92
2022-07-27T16:11:38.656Z,33.49
2022-07-27T16:14:08.721Z,34.23
2022-07-27T16:16:36.944Z,34.96
2022-07-27T16:19:13.492Z,35.74
2022-07-27T16:21:55.276Z,35.00
2022-07-27T16:24:24.986Z,34.88
2022-07-27T16:26:53.988Z,34.83
2022-07-27T16:29:24.512Z,33.28
2022-07-27T16:31:58.091Z,33.44
2022-07-27T16:34:27.034Z,33.63
2022-07-27T16:36:55.941Z,32.25
2022-07-27T16:39:24.932Z,32.63
2022-07-27T16:41:53.417Z,33.27
2022-07-27T16:44:22.017Z,33.18
2022-07-27T16:46:51.829Z,32.83
2022-07-27T16:49:20.073Z,34.01
2022-07-27T16:51:49.004Z,35.99
2022-07-27T16:54:17.116Z,35.58
2022-07-27T16:56:45.375Z,34.78
2022-07-27T16:59:13.746Z,34.77
2022-07-27T17:01:42.364Z,35.00
2022-07-27T17:04:12.345Z,34.93
2022-07-27T17:06:40.544Z,33.56
2022-07-27T17:09:08.949Z,32.77
2022-07-27T17:11:37.608Z,32.86
2022-07-27T17:14:07.208Z,32.68
2022-07-27T17:16:36.353Z,32.90
2022-07-27T17:19:04.565Z,33.90
2022-07-27T17:21:34.605Z,33.78
2022-07-27T17:24:03.146Z,32.82
2022-07-27T17:26:31.340Z,32.68
2022-07-27T17:29:00.141Z,32.86
2022-07-27T17:31:28.903Z,32.29
2022-07-27T17:33:57.349Z,32.26
2022-07-27T17:36:26.516Z,32.56
2022-07-27T17:38:56.512Z,31.85
2022-07-27T17:41:25.505Z,32.24
2022-07-27T17:43:55.099Z,33.22
2022-07-27T17:46:23.384Z,33.23
2022-07-27T17:48:51.868Z,34.02
2022-07-27T17:51:21.227Z,33.68
2022-07-27T17:53:49.588Z,34.28
2022-07-27T17:56:19.618Z,35.02
2022-07-27T17:58:48.384Z,35.95
2022-07-27T18:01:16.716Z,36.65
2022-07-27T18:03:44.966Z,36.79
2022-07-27T18:06:13.158Z,36.65
2022-07-27T18:08:41.409Z,36.56
2022-07-27T18:11:13.618Z,36.52
2022-07-27T18:13:43.443Z,37.38
2022-07-27T18:16:14.062Z,37.82
2022-07-27T18:18:43.861Z,38.17
2022-07-27T18:21:12.441Z,38.56
2022-07-27T18:23:41.213Z,38.81
2022-07-27T18:26:11.019Z,38.71
2022-07-27T18:28:40.305Z,39.13
2022-07-27T18:31:13.879Z,39.33
2022-07-27T18:33:45.967Z,40.20
2022-07-27T18:36:14.842Z,40.02
2022-07-27T18:38:45.155Z,40.11
2022-07-27T18:41:13.711Z,40.61
2022-07-27T18:43:50.737Z,40.70
2022-07-27T18:46:23.507Z,41.57
2022-07-27T18:48:52.201Z,41.57
2022-07-27T18:51:20.715Z,41.88
2022-07-27T18:53:49.789Z,41.71
2022-07-27T18:56:18.051Z,42.07
2022-07-27T18:58:46.239Z,42.53
2022-07-27T19:01:14.580Z,42.68
2022-07-27T19:03:44.904Z,43.42
2022-07-27T19:06:15.117Z,44.32
2022-07-27T19:08:46.701Z,45.06
2022-07-27T19:11:15.344Z,44.45
2022-07-27T19:13:45.891Z,44.71
2022-07-27T19:16:14.917Z,45.40
2022-07-27T19:18:44.792Z,46.08
2022-07-27T19:21:12.907Z,46.61
2022-07-27T19:23:41.082Z,46.35
2022-07-27T19:26:10.425Z,46.95
2022-07-27T19:28:41.464Z,47.68
2022-07-27T19:31:22.874Z,48.35
2022-07-27T19:33:53.929Z,47.40
2022-07-27T19:36:23.385Z,47.67
2022-07-27T19:38:51.715Z,48.36
2022-07-27T19:41:20.599Z,48.35
2022-07-27T19:43:49.405Z,49.27
2022-07-27T19:46:17.923Z,49.66
2022-07-27T19:48:46.557Z,49.75
2022-07-27T19:51:16.980Z,50.54
2022-07-27T19:53:45.020Z,50.68
2022-07-27T19:56:13.104Z,50.40
2022-07-27T19:58:42.086Z,50.71
2022-07-27T20:01:11.635Z,50.89
2022-07-27T20:03:52.288Z,51.58
2022-07-27T20:06:26.829Z,51.94
2022-07-27T20:08:59.764Z,52.50
2022-07-27T20:11:30.799Z,53.09
2022-07-27T20:13:59.454Z,53.36
2022-07-27T20:16:29.965Z,53.43
2022-07-27T20:18:59.894Z,53.72
2022-07-27T20:21:29.839Z,54.07
2022-07-27T20:24:02.103Z,54.40
2022-07-27T20:26:31.977Z,54.63
2022-07-27T20:29:01.369Z,55.27
2022-07-27T20:31:29.799Z,55.09
2022-07-27T20:33:57.867Z,56.05
2022-07-27T20:36:27.603Z,57.70
2022-07-27T20:38:59.256Z,58.51
2022-07-27T20:41:28.349Z,58.66
2022-07-27T20:43:56.600Z,58.46
2022-07-27T20:46:25.097Z,59.00
2022-07-27T20:48:53.507Z,59.00
2022-07-27T20:51:21.808Z,59.65
2022-07-27T20:53:50.687Z,59.68
2022-07-27T20:56:20.495Z,60.65
2022-07-27T20:58:49.152Z,60.57
2022-07-27T21:01:17.611Z,61.12
2022-07-27T21:03:45.982Z,61.14
2022-07-27T21:06:16.546Z,61.97
2022-07-27T21:08:46.817Z,61.87
2022-07-27T21:11:16.678Z,63.01
2022-07-27T21:13:46.678Z,63.30
2022-07-27T21:16:14.891Z,64.52
2022-07-27T21:18:44.513Z,63.48
2022-07-27T21:21:13.500Z,64.45
2022-07-27T21:23:58.580Z,64.40
2022-07-27T21:26:27.034Z,65.54
2022-07-27T21:28:56.849Z,67.22
2022-07-27T21:31:25.431Z,69.30
2022-07-27T21:33:53.619Z,69.68
2022-07-27T21:36:21.821Z,69.16
2022-07-27T21:38:50.257Z,69.06
2022-07-27T21:41:18.546Z,69.07
2022-07-27T21:43:46.880Z,68.55
2022-07-27T21:46:17.042Z,68.82
2022-07-27T21:48:45.291Z,69.64
2022-07-27T21:51:15.657Z,70.14
2022-07-27T21:53:44.049Z,70.95
2022-07-27T21:56:13.432Z,71.97
2022-07-27T21:58:44.512Z,71.78
2022-07-27T22:01:13.705Z,72.41
2022-07-27T22:03:44.336Z,72.94
2022-07-27T22:06:12.949Z,73.36
2022-07-27T22:08:41.120Z,72.68
2022-07-27T22:11:11.667Z,74.08
2022-07-27T22:13:39.852Z,75.11
2022-07-27T22:16:09.098Z,76.49
2022-07-27T22:18:37.336Z,76.84
2022-07-27T22:21:07.248Z,78.70
2022-07-27T22:23:35.666Z,77.56
2022-07-27T22:26:03.957Z,77.14
2022-07-27T22:28:32.295Z,77.06
2022-07-27T22:31:21.266Z,79.01
2022-07-27T22:33:50.151Z,78.87
2022-07-27T22:36:20.387Z,79.12
2022-07-27T22:38:48.797Z,78.88
2022-07-27T22:41:17.097Z,81.35
2022-07-27T22:43:45.446Z,80.60
2022-07-27T22:46:13.752Z,80.19
2022-07-27T22:48:41.932Z,80.69
2022-07-27T22:51:10.270Z,82.58
2022-07-27T22:53:40.061Z,82.45
2022-07-27T22:56:08.282Z,83.69
2022-07-27T22:58:36.574Z,83.40
2022-07-27T23:01:05.010Z,83.33
2022-07-27T23:03:34.093Z,83.33
2022-07-27T23:06:02.252Z,83.44
2022-07-27T23:08:30.365Z,83.49
2022-07-27T23:11:01.191Z,83.74
2022-07-27T23:13:33.681Z,84.35
2022-07-27T23:16:02.590Z,84.61
2022-07-27T23:18:33.673Z,85.40
2022-07-27T23:21:01.744Z,85.97
2022-07-27T23:23:30.214Z,86.63
2022-07-27T23:26:05.630Z,86.65
2022-07-27T23:28:34.684Z,88.12
2022-07-27T23:31:03.084Z,88.19
2022-07-27T23:33:31.452Z,90.06
2022-07-27T23:35:59.525Z,93.23
2022-07-27T23:38:27.808Z,94.85
2022-07-27T23:40:56.118Z,94.34
2022-07-27T23:43:26.282Z,93.99
2022-07-27T23:45:54.444Z,94.79
2022-07-27T23:48:25.035Z,95.87
2022-07-27T23:50:53.714Z,95.74
2022-07-27T23:53:21.889Z,96.61
2022-07-27T23:55:50.027Z,96.80
2022-07-27T23:58:18.177Z,97.24
